sensor_id;sensor_type;location;lat;lon;timestamp;pressure;altitude;pressure_sealevel;temperature;humidity
68965;BME280;56017;48.680;8.998;2023-02-21T00:02:22;97210;;;4.2;72.5
68965;BME280;56017;48.680;8.998;2023-02-21T00:04:52;97210;;;4.1;72
68965;BME280;56017;48.680;8.998;2023-02-21T00:07:34;97200;;;3.8;72.5
68965;BME280;56017;48.680;8.998;2023-02-21T00:10:05;97200;;;3.7;73
68965;BME280;56017;48.680;8.998;2023-02-21T00:12:34;97200;;;3.7;73.5
68965;BME280;56017;48.680;8.998;2023-02-21T00:14:53;97200;;;3.6;73
68965;BME280;56017;48.680;8.998;2023-02-21T00:19:54;97200;;;3.4;73.5
68965;BME280;56017;48.680;8.998;2023-02-21T00:24:55;97190;;;3.3;73
68965;BME280;56017;48.680;8.998;2023-02-21T00:27:26;97190;;;3.2;73.5
68965;BME280;56017;48.680;8.998;2023-02-21T00:30:08;97190;;;3.2;73.5
68965;BME280;56017;48.680;8.998;2023-02-21T00:32:47;97190;;;3.3;73
68965;BME280;56017;48.680;8.998;2023-02-21T00:35:17;97190;;;3.2;73
68965;BME280;56017;48.680;8.998;2023-02-21T00:42:27;97190;;;3.2;73.5
68965;BME280;56017;48.680;8.998;2023-02-21T00:44:58;97190;;;3.2;73
68965;BME280;56017;48.680;8.998;2023-02-21T00:47:28;97180;;;3.2;73
68965;BME280;56017;48.680;8.998;2023-02-21T00:49:59;97180;;;3;73
68965;BME280;56017;48.680;8.998;2023-02-21T00:52:30;97180;;;2.9;73.5
68965;BME280;56017;48.680;8.998;2023-02-21T01:00:15;97180;;;2.9;73.5
68965;BME280;56017;48.680;8.998;2023-02-21T01:02:42;97180;;;2.8;73
68965;BME280;56017;48.680;8.998;2023-02-21T01:05:12;97180;;;2.7;73
68965;BME280;56017;48.680;8.998;2023-02-21T01:07:31;97180;;;2.6;73.5
68965;BME280;56017;48.680;8.998;2023-02-21T01:12:33;97180;;;2.6;73.5
68965;BME280;56017;48.680;8.998;2023-02-21T01:17:33;97180;;;2.6;73.5
68965;BME280;56017;48.680;8.998;2023-02-21T01:20:04;97170;;;2.5;73.5
68965;BME280;56017;48.680;8.998;2023-02-21T01:22:55;97180;;;2.5;73.5
68965;BME280;56017;48.680;8.998;2023-02-21T01:25:16;97170;;;2.6;73.5
68965;BME280;56017;48.680;8.998;2023-02-21T01:27:46;97170;;;2.6;73.5
68965;BME280;56017;48.680;8.998;2023-02-21T01:30:05;97170;;;2.6;73.5
68965;BME280;56017;48.680;8.998;2023-02-21T01:37:38;97170;;;2.4;73.5
68965;BME280;56017;48.680;8.998;2023-02-21T01:40:07;97170;;;2.4;73.5
68965;BME280;56017;48.680;8.998;2023-02-21T01:42:37;97170;;;2.3;73.5
68965;BME280;56017;48.680;8.998;2023-02-21T01:47:49;97170;;;2.5;73.5
68965;BME280;56017;48.680;8.998;2023-02-21T01:50:24;97160;;;2.5;73.5
68965;BME280;56017;48.680;8.998;2023-02-21T01:52:39;97160;;;2.5;73.5
68965;BME280;56017;48.680;8.998;2023-02-21T01:55:09;97160;;;2.6;73
68965;BME280;56017;48.680;8.998;2023-02-21T02:00:12;97160;;;2.5;73
68965;BME280;56017;48.680;8.998;2023-02-21T02:03:14;97160;;;2.4;73
68965;BME280;56017;48.680;8.998;2023-02-21T02:05:12;97160;;;2.2;73.5
68965;BME280;56017;48.680;8.998;2023-02-21T02:07:42;97150;;;2.2;73.5
68965;BME280;56017;48.680;8.998;2023-02-21T02:13:02;97150;;;2.1;73.5
68965;BME280;56017;48.680;8.998;2023-02-21T02:15:30;97150;;;2.2;73.5
68965;BME280;56017;48.680;8.998;2023-02-21T02:17:59;97150;;;2.2;73.5
68965;BME280;56017;48.680;8.998;2023-02-21T02:28:03;97140;;;2.2;73
68965;BME280;56017;48.680;8.998;2023-02-21T02:30:35;97150;;;2.1;73.5
68965;BME280;56017;48.680;8.998;2023-02-21T02:33:03;97140;;;2.1;73.5
68965;BME280;56017;48.680;8.998;2023-02-21T02:40:22;97130;;;2.1;73.5
68965;BME280;56017;48.680;8.998;2023-02-21T02:42:57;97140;;;2.1;73.5
68965;BME280;56017;48.680;8.998;2023-02-21T02:45:35;97130;;;2.1;73
68965;BME280;56017;48.680;8.998;2023-02-21T02:50:18;97130;;;1.8;73.5
68965;BME280;56017;48.680;8.998;2023-02-21T02:58:01;97120;;;1.9;73.5
68965;BME280;56017;48.680;8.998;2023-02-21T03:00:32;97110;;;1.9;73.5
68965;BME280;56017;48.680;8.998;2023-02-21T03:03:06;97120;;;2;73.5
68965;BME280;56017;48.680;8.998;2023-02-21T03:10:44;97130;;;1.8;73.5
68965;BME280;56017;48.680;8.998;2023-02-21T03:13:16;97120;;;1.7;73.5
68965;BME280;56017;48.680;8.998;2023-02-21T03:16:38;97130;;;1.7;73.5
68965;BME280;56017;48.680;8.998;2023-02-21T03:18:06;97130;;;1.8;73.5
68965;BME280;56017;48.680;8.998;2023-02-21T03:20:33;97120;;;1.8;73.5
68965;BME280;56017;48.680;8.998;2023-02-21T03:22:52;97120;;;1.8;73.5
68965;BME280;56017;48.680;8.998;2023-02-21T03:25:23;97120;;;1.8;73.5
68965;BME280;56017;48.680;8.998;2023-02-21T03:27:53;97120;;;2;73
68965;BME280;56017;48.680;8.998;2023-02-21T03:32:54;97120;;;1.9;73.5
68965;BME280;56017;48.680;8.998;2023-02-21T03:38:16;97120;;;1.9;73
68965;BME280;56017;48.680;8.998;2023-02-21T03:40:46;97120;;;1.7;73
68965;BME280;56017;48.680;8.998;2023-02-21T03:43:16;97120;;;1.6;73
68965;BME280;56017;48.680;8.998;2023-02-21T03:47:55;97120;;;1.4;74
68965;BME280;56017;48.680;8.998;2023-02-21T03:50:26;97120;;;1.5;73.5
68965;BME280;56017;48.680;8.998;2023-02-21T03:55:27;97120;;;1.6;74
68965;BME280;56017;48.680;8.998;2023-02-21T03:57:58;97110;;;1.8;74
68965;BME280;56017;48.680;8.998;2023-02-21T04:00:28;97110;;;2;73
68965;BME280;56017;48.680;8.998;2023-02-21T04:02:59;97120;;;2;72.5
68965;BME280;56017;48.680;8.998;2023-02-21T04:05:40;97120;;;1.8;73
68965;BME280;56017;48.680;8.998;2023-02-21T04:08:11;97130;;;1.6;73
68965;BME280;56017;48.680;8.998;2023-02-21T04:10:41;97120;;;1.5;73.5
68965;BME280;56017;48.680;8.998;2023-02-21T04:15:30;97120;;;1.4;74
68965;BME280;56017;48.680;8.998;2023-02-21T04:18:32;97120;;;1.4;74
68965;BME280;56017;48.680;8.998;2023-02-21T04:20:54;97120;;;1.5;73.5
68965;BME280;56017;48.680;8.998;2023-02-21T04:23:17;97120;;;1.5;74
68965;BME280;56017;48.680;8.998;2023-02-21T04:25:43;97120;;;1.6;73.5
68965;BME280;56017;48.680;8.998;2023-02-21T04:28:13;97120;;;1.6;73.5
68965;BME280;56017;48.680;8.998;2023-02-21T04:33:25;97110;;;1.7;74
68965;BME280;56017;48.680;8.998;2023-02-21T04:35:55;97110;;;1.8;73.5
68965;BME280;56017;48.680;8.998;2023-02-21T04:38:14;97110;;;2;73
68965;BME280;56017;48.680;8.998;2023-02-21T04:40:44;97110;;;1.9;73
68965;BME280;56017;48.680;8.998;2023-02-21T04:43:14;97120;;;1.7;73.5
68965;BME280;56017;48.680;8.998;2023-02-21T04:45:44;97110;;;1.7;73.5
68965;BME280;56017;48.680;8.998;2023-02-21T04:48:14;97110;;;1.5;73.5
68965;BME280;56017;48.680;8.998;2023-02-21T04:53:15;97110;;;1.3;73.5
68965;BME280;56017;48.680;8.998;2023-02-21T04:56:06;97110;;;1.3;74
68965;BME280;56017;48.680;8.998;2023-02-21T05:00:33;97110;;;1.5;74
68965;BME280;56017;48.680;8.998;2023-02-21T05:03:02;97100;;;1.5;73.5
68965;BME280;56017;48.680;8.998;2023-02-21T05:05:32;97100;;;1.4;73.5
68965;BME280;56017;48.680;8.998;2023-02-21T05:10:34;97100;;;1.5;74
68965;BME280;56017;48.680;8.998;2023-02-21T05:13:05;97110;;;1.6;74
68965;BME280;56017;48.680;8.998;2023-02-21T05:15:35;97100;;;1.6;74
68965;BME280;56017;48.680;8.998;2023-02-21T05:23:21;97100;;;1.8;73.5
68965;BME280;56017;48.680;8.998;2023-02-21T05:26:02;97110;;;1.7;73
68965;BME280;56017;48.680;8.998;2023-02-21T05:28:21;97100;;;1.5;73.5
68965;BME280;56017;48.680;8.998;2023-02-21T05:30:46;97100;;;1.3;73.5
68965;BME280;56017;48.680;8.998;2023-02-21T05:33:17;97100;;;1.3;74
68965;BME280;56017;48.680;8.998;2023-02-21T05:35:48;97090;;;1.4;74
68965;BME280;56017;48.680;8.998;2023-02-21T05:38:19;97100;;;1.4;74
68965;BME280;56017;48.680;8.998;2023-02-21T05:40:50;97100;;;1.6;73.5
68965;BME280;56017;48.680;8.998;2023-02-21T05:43:27;97100;;;1.7;73.5
68965;BME280;56017;48.680;8.998;2023-02-21T05:45:57;97100;;;1.6;73
68965;BME280;56017;48.680;8.998;2023-02-21T05:48:27;97100;;;1.4;73
68965;BME280;56017;48.680;8.998;2023-02-21T05:50:57;97100;;;1.2;73.5
68965;BME280;56017;48.680;8.998;2023-02-21T05:53:28;97100;;;1;73.5
68965;BME280;56017;48.680;8.998;2023-02-21T05:55:59;97110;;;1;74
68965;BME280;56017;48.680;8.998;2023-02-21T05:58:23;97100;;;1;74
68965;BME280;56017;48.680;8.998;2023-02-21T06:03:18;97100;;;1.3;74
68965;BME280;56017;48.680;8.998;2023-02-21T06:06:02;97100;;;1.4;73.5
68965;BME280;56017;48.680;8.998;2023-02-21T06:08:40;97110;;;1.4;73.5
68965;BME280;56017;48.680;8.998;2023-02-21T06:11:02;97100;;;1.3;73.5
68965;BME280;56017;48.680;8.998;2023-02-21T06:13:33;97100;;;1.2;73.5
68965;BME280;56017;48.680;8.998;2023-02-21T06:15:57;97110;;;1;73.5
68965;BME280;56017;48.680;8.998;2023-02-21T06:18:35;97100;;;1.1;74
68965;BME280;56017;48.680;8.998;2023-02-21T06:20:59;97100;;;1.1;74
68965;BME280;56017;48.680;8.998;2023-02-21T06:23:37;97100;;;1.1;74
68965;BME280;56017;48.680;8.998;2023-02-21T06:25:54;97100;;;1.1;74
68965;BME280;56017;48.680;8.998;2023-02-21T06:28:27;97100;;;1.2;74
68965;BME280;56017;48.680;8.998;2023-02-21T06:33:27;97110;;;1.3;74
68965;BME280;56017;48.680;8.998;2023-02-21T06:35:57;97100;;;1.3;73.5
68965;BME280;56017;48.680;8.998;2023-02-21T06:38:28;97100;;;1.2;73.5
68965;BME280;56017;48.680;8.998;2023-02-21T06:40:59;97090;;;1.1;74
68965;BME280;56017;48.680;8.998;2023-02-21T06:46:07;97090;;;1.3;74
68965;BME280;56017;48.680;8.998;2023-02-21T06:48:38;97090;;;1.4;73.5
68965;BME280;56017;48.680;8.998;2023-02-21T06:51:09;97080;;;1.4;73.5
68965;BME280;56017;48.680;8.998;2023-02-21T06:53:48;97090;;;1.4;74
68965;BME280;56017;48.680;8.998;2023-02-21T06:56:17;97090;;;1.5;74
68965;BME280;56017;48.680;8.998;2023-02-21T06:59:01;97080;;;1.7;73.5
68965;BME280;56017;48.680;8.998;2023-02-21T07:01:18;97080;;;1.7;73.5
68965;BME280;56017;48.680;8.998;2023-02-21T07:06:12;97080;;;1.9;73.5
68965;BME280;56017;48.680;8.998;2023-02-21T07:08:45;97080;;;1.9;73
68965;BME280;56017;48.680;8.998;2023-02-21T07:11:15;97080;;;1.9;73
68965;BME280;56017;48.680;8.998;2023-02-21T07:13:46;97090;;;2;73
68965;BME280;56017;48.680;8.998;2023-02-21T07:16:16;97090;;;2.1;73
68965;BME280;56017;48.680;8.998;2023-02-21T07:21:19;97090;;;2.4;73.5
68965;BME280;56017;48.680;8.998;2023-02-21T07:23:49;97090;;;2.5;73.5
68965;BME280;56017;48.680;8.998;2023-02-21T07:26:20;97100;;;2.8;73.5
68965;BME280;56017;48.680;8.998;2023-02-21T07:28:51;97090;;;3;73
68965;BME280;56017;48.680;8.998;2023-02-21T07:31:22;97090;;;3.1;73
68965;BME280;56017;48.680;8.998;2023-02-21T07:33:53;97090;;;3.3;73
68965;BME280;56017;48.680;8.998;2023-02-21T07:36:24;97100;;;3.5;73
68965;BME280;56017;48.680;8.998;2023-02-21T07:38:55;97090;;;3.7;73
68965;BME280;56017;48.680;8.998;2023-02-21T07:44:03;97090;;;4.1;73
68965;BME280;56017;48.680;8.998;2023-02-21T07:46:28;97090;;;4.4;73
68965;BME280;56017;48.680;8.998;2023-02-21T07:48:59;97090;;;4.5;72.5
68965;BME280;56017;48.680;8.998;2023-02-21T07:51:30;97090;;;4.6;72.5
68965;BME280;56017;48.680;8.998;2023-02-21T07:54:07;97090;;;4.8;72.5
68965;BME280;56017;48.680;8.998;2023-02-21T07:56:32;97090;;;5;72.5
68965;BME280;56017;48.680;8.998;2023-02-21T07:59:09;97080;;;5.1;72.5
68965;BME280;56017;48.680;8.998;2023-02-21T08:01:39;97080;;;5.2;72.5
68965;BME280;56017;48.680;8.998;2023-02-21T08:04:09;97090;;;5.4;72.5
68965;BME280;56017;48.680;8.998;2023-02-21T08:09:03;97090;;;5.6;71.5
68965;BME280;56017;48.680;8.998;2023-02-21T08:11:34;97090;;;5.6;72
68965;BME280;56017;48.680;8.998;2023-02-21T08:14:05;97090;;;5.7;72
68965;BME280;56017;48.680;8.998;2023-02-21T08:16:36;97090;;;6;72
68965;BME280;56017;48.680;8.998;2023-02-21T08:19:07;97090;;;6.2;72
68965;BME280;56017;48.680;8.998;2023-02-21T08:21:44;97080;;;6.4;72
68965;BME280;56017;48.680;8.998;2023-02-21T08:24:14;97080;;;6.6;72
68965;BME280;56017;48.680;8.998;2023-02-21T08:26:44;97080;;;6.9;71.5
68965;BME280;56017;48.680;8.998;2023-02-21T08:31:39;97090;;;7.1;71.5
68965;BME280;56017;48.680;8.998;2023-02-21T08:34:09;97080;;;7.2;71.5
68965;BME280;56017;48.680;8.998;2023-02-21T08:36:41;97080;;;7.4;71.5
68965;BME280;56017;48.680;8.998;2023-02-21T08:39:11;97080;;;7.5;71.5
68965;BME280;56017;48.680;8.998;2023-02-21T08:41:36;97080;;;7.7;71.5
68965;BME280;56017;48.680;8.998;2023-02-21T08:44:19;97080;;;7.9;71.5
68965;BME280;56017;48.680;8.998;2023-02-21T08:46:49;97080;;;8;71.5
68965;BME280;56017;48.680;8.998;2023-02-21T08:49:20;97090;;;8.2;71.5
68965;BME280;56017;48.680;8.998;2023-02-21T08:56:51;97080;;;8.8;71.5
68965;BME280;56017;48.680;8.998;2023-02-21T08:59:15;97080;;;8.9;71.5
68965;BME280;56017;48.680;8.998;2023-02-21T09:04:23;97080;;;9.3;71.5
68965;BME280;56017;48.680;8.998;2023-02-21T09:06:54;97080;;;9.5;71.5
68965;BME280;56017;48.680;8.998;2023-02-21T09:11:47;97080;;;9.8;71.5
68965;BME280;56017;48.680;8.998;2023-02-21T09:14:18;97080;;;10;71.5
68965;BME280;56017;48.680;8.998;2023-02-21T09:16:49;97080;;;10.1;71.5
68965;BME280;56017;48.680;8.998;2023-02-21T09:19:20;97070;;;10.4;72
68965;BME280;56017;48.680;8.998;2023-02-21T09:21:51;97070;;;10.6;71.5
68965;BME280;56017;48.680;8.998;2023-02-21T09:24:23;97070;;;10.7;71.5
68965;BME280;56017;48.680;8.998;2023-02-21T09:26:54;97070;;;10.9;71.5
68965;BME280;56017;48.680;8.998;2023-02-21T09:29:25;97070;;;11.1;71.5
68965;BME280;56017;48.680;8.998;2023-02-21T09:31:56;97070;;;11.3;71.5
68965;BME280;56017;48.680;8.998;2023-02-21T09:34:26;97070;;;11.6;71.5
68965;BME280;56017;48.680;8.998;2023-02-21T09:36:56;97070;;;11.9;71.5
68965;BME280;56017;48.680;8.998;2023-02-21T09:39:27;97070;;;12.2;71.5
68965;BME280;56017;48.680;8.998;2023-02-21T09:44:29;97060;;;12.7;71.5
68965;BME280;56017;48.680;8.998;2023-02-21T09:47:03;97060;;;13;71.5
68965;BME280;56017;48.680;8.998;2023-02-21T09:49:34;97050;;;13.8;71
68965;BME280;56017;48.680;8.998;2023-02-21T09:52:03;97050;;;14.8;70.5
68965;BME280;56017;48.680;8.998;2023-02-21T09:54:36;97050;;;15.8;69
68965;BME280;56017;48.680;8.998;2023-02-21T09:57:06;97050;;;16.3;68.5
68965;BME280;56017;48.680;8.998;2023-02-21T09:59:35;97050;;;16.5;69
68965;BME280;56017;48.680;8.998;2023-02-21T10:04:53;97040;;;16.8;70.5
68965;BME280;56017;48.680;8.998;2023-02-21T10:09:47;97040;;;17.6;70.5
68965;BME280;56017;48.680;8.998;2023-02-21T10:12:25;97040;;;17.7;71
68965;BME280;56017;48.680;8.998;2023-02-21T10:14:55;97030;;;17.9;71
68965;BME280;56017;48.680;8.998;2023-02-21T10:17:27;97030;;;17.7;71
68965;BME280;56017;48.680;8.998;2023-02-21T10:19:52;97030;;;17.6;72
68965;BME280;56017;48.680;8.998;2023-02-21T10:22:20;97030;;;17.5;73
68965;BME280;56017;48.680;8.998;2023-02-21T10:24:49;97030;;;17.6;73.5
68965;BME280;56017;48.680;8.998;2023-02-21T10:27:15;97030;;;17.7;73.5
68965;BME280;56017;48.680;8.998;2023-02-21T10:29:51;97020;;;17.9;72.5
68965;BME280;56017;48.680;8.998;2023-02-21T10:32:15;97020;;;18.1;71.5
68965;BME280;56017;48.680;8.998;2023-02-21T10:39:54;97020;;;18.3;72.5
68965;BME280;56017;48.680;8.998;2023-02-21T10:42:25;97020;;;18.7;71
68965;BME280;56017;48.680;8.998;2023-02-21T10:45:07;97020;;;19;69
68965;BME280;56017;48.680;8.998;2023-02-21T10:47:25;97020;;;18.8;69.5
68965;BME280;56017;48.680;8.998;2023-02-21T10:49:51;97030;;;18.9;69
68965;BME280;56017;48.680;8.998;2023-02-21T10:52:25;97020;;;19.9;67
68965;BME280;56017;48.680;8.998;2023-02-21T10:55:06;97020;;;20.4;65
68965;BME280;56017;48.680;8.998;2023-02-21T10:57:29;97020;;;19.6;67
68965;BME280;56017;48.680;8.998;2023-02-21T10:59:52;97020;;;19.7;66
68965;BME280;56017;48.680;8.998;2023-02-21T11:02:31;97010;;;19.5;66.5
68965;BME280;56017;48.680;8.998;2023-02-21T11:04:54;97010;;;19.3;68
68965;BME280;56017;48.680;8.998;2023-02-21T11:07:31;97000;;;19.2;69
68965;BME280;56017;48.680;8.998;2023-02-21T11:09:56;97000;;;19.4;69
68965;BME280;56017;48.680;8.998;2023-02-21T11:12:33;97000;;;18.7;70.5
68965;BME280;56017;48.680;8.998;2023-02-21T11:15:03;96990;;;18.4;71
68965;BME280;56017;48.680;8.998;2023-02-21T11:17:35;97000;;;17.9;71.5
68965;BME280;56017;48.680;8.998;2023-02-21T11:20:04;96990;;;17.5;72
68965;BME280;56017;48.680;8.998;2023-02-21T11:22:39;96990;;;17.2;73
68965;BME280;56017;48.680;8.998;2023-02-21T11:25:39;96980;;;17.2;72.5
